Time;durP1;ratioP1;P1;durP2;ratioP2;P2;SDS_P1;SDS_P2;PMS_P1;PMS_P2;Temp;Humidity;BMP_temperature;BMP_pressure;BME280_temperature;BME280_humidity;BME280_pressure;Samples;Min_cycle;Max_cycle;Signal;HPM_P1;HPM_P2
2023/07/24 00:02:16;;;;;;;0.20;0.20;;;18.10;99.90;;;;;;5081732;28;20044;-81
2023/07/24 00:04:41;;;;;;;0.20;0.20;;;18.00;99.90;;;;;;5086368;28;20040;-83
2023/07/24 00:07:07;;;;;;;0.20;0.20;;;18.00;99.90;;;;;;5089279;28;20034;-83
2023/07/24 00:09:33;;;;;;;0.20;0.20;;;18.00;99.90;;;;;;5089723;28;20373;-82
2023/07/24 00:11:58;;;;;;;0.20;0.20;;;18.00;99.90;;;;;;5075300;28;20594;-82
2023/07/24 00:14:24;;;;;;;0.20;0.20;;;18.00;99.90;;;;;;5115930;27;20062;-81
2023/07/24 00:16:50;;;;;;;0.20;0.20;;;18.00;99.90;;;;;;5105477;27;20479;-82
2023/07/24 00:19:16;;;;;;;0.20;0.20;;;18.00;99.90;;;;;;5072251;28;20384;-81
2023/07/24 00:21:42;;;;;;;0.20;0.20;;;18.00;99.90;;;;;;5071185;28;20043;-81
2023/07/24 00:24:07;;;;;;;0.20;0.20;;;18.00;99.90;;;;;;5070772;28;20056;-81
2023/07/24 00:26:33;;;;;;;0.20;0.20;;;18.00;99.90;;;;;;5071377;28;20045;-82
2023/07/24 00:29:00;;;;;;;0.20;0.20;;;18.00;99.90;;;;;;5108408;27;20048;-82
2023/07/24 00:31:26;;;;;;;0.20;0.20;;;17.90;99.90;;;;;;5104066;27;20052;-82
2023/07/24 00:33:52;;;;;;;0.10;0.10;;;17.90;99.90;;;;;;5090320;28;20543;-82
2023/07/24 00:36:17;;;;;;;0.20;0.20;;;17.90;99.90;;;;;;5072167;28;20043;-81
2023/07/24 00:38:43;;;;;;;0.20;0.20;;;17.90;99.90;;;;;;5081229;28;20040;-82
2023/07/24 00:41:09;;;;;;;0.20;0.20;;;17.90;99.90;;;;;;5087884;28;20090;-82
2023/07/24 00:43:34;;;;;;;0.20;0.20;;;17.90;99.90;;;;;;5090507;28;20043;-81
2023/07/24 00:46:02;;;;;;;0.20;0.20;;;17.90;99.90;;;;;;5095472;28;20048;-82
2023/07/24 00:48:28;;;;;;;0.20;0.20;;;17.80;99.90;;;;;;5085750;28;20029;-81
2023/07/24 00:50:54;;;;;;;0.20;0.20;;;17.80;99.90;;;;;;5117147;27;20657;-82
2023/07/24 00:53:20;;;;;;;0.20;0.20;;;17.80;99.90;;;;;;5076875;28;20055;-82
2023/07/24 00:55:46;;;;;;;0.20;0.20;;;17.80;99.90;;;;;;5071235;28;20044;-82
2023/07/24 00:58:12;;;;;;;0.20;0.20;;;17.80;99.90;;;;;;5071575;28;20048;-81
2023/07/24 01:00:40;;;;;;;0.20;0.20;;;17.70;99.90;;;;;;5082441;28;19989;-83
2023/07/24 01:03:06;;;;;;;0.20;0.20;;;17.70;99.90;;;;;;5081028;28;20048;-81
2023/07/24 01:05:31;;;;;;;0.10;0.10;;;17.70;99.90;;;;;;5087672;28;20042;-82
2023/07/24 01:07:57;;;;;;;0.20;0.20;;;17.70;99.90;;;;;;5092503;28;20059;-82
2023/07/24 01:10:23;;;;;;;0.10;0.10;;;17.70;99.90;;;;;;5080396;28;20037;-82
2023/07/24 01:13:22;;;;;;;0.20;0.20;;;17.60;99.90;;;;;;5103142;27;20131;-81
2023/07/24 01:16:12;;;;;;;0.20;0.20;;;17.60;99.90;;;;;;5071699;28;20049;-81
2023/07/24 01:18:39;;;;;;;0.20;0.20;;;17.60;99.90;;;;;;5105755;27;20040;-82
2023/07/24 01:21:08;;;;;;;0.20;0.20;;;17.60;99.90;;;;;;5110335;27;20052;-83
2023/07/24 01:24:18;;;;;;;0.20;0.20;;;17.60;99.90;;;;;;5088025;28;20483;-83
2023/07/24 01:26:44;;;;;;;0.20;0.20;;;17.60;99.90;;;;;;5077834;28;20039;-81
2023/07/24 01:29:09;;;;;;;0.20;0.20;;;17.60;99.90;;;;;;5086758;28;20052;-83
2023/07/24 01:31:35;;;;;;;0.20;0.20;;;17.60;99.90;;;;;;5088956;28;20112;-82
2023/07/24 01:34:01;;;;;;;0.20;0.20;;;17.50;99.90;;;;;;5088178;28;20059;-82
2023/07/24 01:36:26;;;;;;;0.20;0.20;;;17.50;99.90;;;;;;5078953;28;20047;-83
2023/07/24 01:38:53;;;;;;;0.20;0.20;;;17.50;99.90;;;;;;5091318;28;20126;-82
2023/07/24 01:41:19;;;;;;;0.13;0.13;;;17.50;99.90;;;;;;5088654;28;20860;-83
2023/07/24 01:43:45;;;;;;;0.20;0.20;;;17.40;99.90;;;;;;5091675;28;20123;-83
2023/07/24 01:46:11;;;;;;;0.20;0.20;;;17.40;99.90;;;;;;5080980;28;20803;-82
2023/07/24 01:48:36;;;;;;;0.17;0.17;;;17.40;99.90;;;;;;5108521;27;20368;-81
2023/07/24 01:51:02;;;;;;;0.20;0.20;;;17.40;99.90;;;;;;5087677;28;20048;-82
2023/07/24 01:53:28;;;;;;;0.20;0.20;;;17.40;99.90;;;;;;5088420;28;20048;-82
2023/07/24 01:55:53;;;;;;;0.13;0.13;;;17.40;99.90;;;;;;5113953;27;20078;-81
2023/07/24 01:58:19;;;;;;;0.20;0.20;;;17.40;99.90;;;;;;5084384;28;20036;-82
2023/07/24 02:00:45;;;;;;;0.20;0.20;;;17.40;99.90;;;;;;5085365;28;20056;-82
2023/07/24 02:03:10;;;;;;;0.20;0.20;;;17.40;99.90;;;;;;5114481;27;20055;-83
2023/07/24 02:05:36;;;;;;;0.20;0.20;;;17.30;99.90;;;;;;5081981;28;20043;-81
2023/07/24 02:08:02;;;;;;;0.20;0.20;;;17.30;99.90;;;;;;5084316;28;20082;-82
2023/07/24 02:10:27;;;;;;;0.20;0.20;;;17.40;99.90;;;;;;5072974;28;20080;-82
2023/07/24 02:12:53;;;;;;;0.20;0.20;;;17.30;99.90;;;;;;5080160;28;20471;-83
2023/07/24 02:15:19;;;;;;;0.20;0.20;;;17.40;99.90;;;;;;5084764;28;20477;-82
2023/07/24 02:17:44;;;;;;;0.10;0.10;;;17.40;99.90;;;;;;5104873;28;20040;-81
2023/07/24 02:20:10;;;;;;;0.20;0.20;;;17.40;99.90;;;;;;5073794;28;20135;-81
2023/07/24 02:22:36;;;;;;;0.13;0.13;;;17.40;99.90;;;;;;5073256;28;20072;-82
2023/07/24 02:25:01;;;;;;;0.20;0.20;;;17.40;99.90;;;;;;5089045;28;20044;-82
2023/07/24 02:27:31;;;;;;;0.20;0.20;;;17.40;99.90;;;;;;5088995;28;20036;-82
2023/07/24 02:29:57;;;;;;;0.20;0.20;;;17.50;99.90;;;;;;5091951;28;20044;-82
2023/07/24 02:32:23;;;;;;;0.13;0.13;;;17.50;99.90;;;;;;5083446;28;20097;-82
2023/07/24 02:34:50;;;;;;;0.20;0.20;;;17.50;99.90;;;;;;5091476;28;20047;-82
2023/07/24 02:37:16;;;;;;;0.35;0.35;;;17.40;99.90;;;;;;5080743;28;20047;-82
2023/07/24 02:39:41;;;;;;;0.20;0.20;;;17.50;99.90;;;;;;5118252;27;20430;-83
2023/07/24 02:42:07;;;;;;;0.20;0.20;;;17.50;99.90;;;;;;5076545;28;20122;-82
2023/07/24 02:44:34;;;;;;;0.15;0.15;;;17.50;99.90;;;;;;5094595;28;20047;-82
2023/07/24 02:47:00;;;;;;;0.20;0.20;;;17.40;99.90;;;;;;5077711;28;20097;-82
2023/07/24 02:49:25;;;;;;;0.20;0.20;;;17.40;99.90;;;;;;5106266;27;20040;-82
2023/07/24 02:51:51;;;;;;;0.20;0.20;;;17.40;99.90;;;;;;5074453;28;20098;-82
2023/07/24 02:54:17;;;;;;;0.20;0.20;;;17.40;99.90;;;;;;5073026;28;20039;-82
2023/07/24 02:56:42;;;;;;;0.20;0.20;;;17.40;99.90;;;;;;5073219;28;20552;-82
2023/07/24 02:59:08;;;;;;;0.20;0.20;;;17.40;99.90;;;;;;5109519;27;20044;-82
2023/07/24 03:01:34;;;;;;;0.20;0.20;;;17.40;99.90;;;;;;5074601;28;20443;-82
2023/07/24 03:03:59;;;;;;;0.17;0.17;;;17.40;99.90;;;;;;5088259;28;20075;-82
2023/07/24 03:06:26;;;;;;;0.20;0.20;;;17.40;99.90;;;;;;5091492;28;20047;-82
2023/07/24 03:08:51;;;;;;;0.20;0.20;;;17.40;99.90;;;;;;5092264;28;20055;-82
2023/07/24 03:11:17;;;;;;;0.15;0.15;;;17.40;99.90;;;;;;5092361;28;20048;-81
2023/07/24 03:13:43;;;;;;;0.20;0.20;;;17.40;99.90;;;;;;5092403;28;20093;-82
2023/07/24 03:16:08;;;;;;;0.20;0.20;;;17.40;99.90;;;;;;5085472;28;20585;-82
2023/07/24 03:18:34;;;;;;;0.10;0.10;;;17.40;99.90;;;;;;5074236;28;20044;-82
2023/07/24 03:21:00;;;;;;;0.20;0.20;;;17.40;99.90;;;;;;5107527;27;20037;-81
2023/07/24 03:23:26;;;;;;;0.20;0.20;;;17.40;99.90;;;;;;5106427;28;20101;-81
2023/07/24 03:25:51;;;;;;;0.20;0.20;;;17.40;99.90;;;;;;5072444;28;20040;-81
2023/07/24 03:28:17;;;;;;;0.10;0.10;;;17.40;99.90;;;;;;5110125;27;20082;-81
2023/07/24 03:30:43;;;;;;;0.20;0.20;;;17.40;99.90;;;;;;5082011;28;20112;-81
2023/07/24 03:33:09;;;;;;;0.10;0.10;;;17.40;99.90;;;;;;5077444;28;20040;-82
2023/07/24 03:35:34;;;;;;;0.20;0.20;;;17.50;99.90;;;;;;5083658;28;20150;-83
2023/07/24 03:38:00;;;;;;;0.20;0.20;;;17.50;99.90;;;;;;5078479;28;20037;-82
2023/07/24 03:40:26;;;;;;;0.20;0.20;;;17.40;99.90;;;;;;5072282;28;20061;-82
2023/07/24 03:42:52;;;;;;;0.20;0.20;;;17.50;99.90;;;;;;5107893;27;20041;-81
2023/07/24 03:45:17;;;;;;;0.20;0.20;;;17.50;99.90;;;;;;5079996;28;20053;-82
2023/07/24 03:47:43;;;;;;;0.20;0.20;;;17.50;99.90;;;;;;5083489;28;20043;-82
2023/07/24 03:50:09;;;;;;;0.20;0.20;;;17.50;99.90;;;;;;5089118;28;20048;-81
2023/07/24 03:52:35;;;;;;;0.20;0.20;;;17.50;99.90;;;;;;5091057;28;20483;-83
2023/07/24 03:55:01;;;;;;;0.20;0.20;;;17.50;99.90;;;;;;5088947;28;20040;-82
2023/07/24 03:57:27;;;;;;;0.20;0.20;;;17.50;99.90;;;;;;5076226;28;20045;-82
2023/07/24 03:59:53;;;;;;;0.20;0.20;;;17.50;99.90;;;;;;5089644;28;20514;-83
2023/07/24 04:02:19;;;;;;;0.17;0.17;;;17.50;99.90;;;;;;5085677;28;20407;-81
2023/07/24 04:04:44;;;;;;;0.10;0.10;;;17.60;99.90;;;;;;5071867;28;20132;-82
2023/07/24 04:07:10;;;;;;;0.20;0.20;;;17.60;99.90;;;;;;5088184;28;20484;-82
2023/07/24 04:09:36;;;;;;;0.20;0.20;;;17.50;99.90;;;;;;5110852;27;20040;-82
2023/07/24 04:12:01;;;;;;;0.20;0.20;;;17.50;99.90;;;;;;5089986;28;20443;-81
2023/07/24 04:14:27;;;;;;;0.20;0.20;;;17.60;99.90;;;;;;5085361;28;20082;-82
2023/07/24 04:16:55;;;;;;;0.20;0.20;;;17.60;99.90;;;;;;5072482;28;20127;-82
2023/07/24 04:19:21;;;;;;;0.10;0.10;;;17.50;99.90;;;;;;5112434;27;20052;-82
2023/07/24 04:21:46;;;;;;;0.20;0.20;;;17.60;99.90;;;;;;5092119;28;20070;-82
2023/07/24 04:24:12;;;;;;;0.20;0.20;;;17.60;99.90;;;;;;5073512;28;20052;-81
2023/07/24 04:26:39;;;;;;;0.10;0.10;;;17.60;99.90;;;;;;5078060;28;20118;-81
2023/07/24 04:29:05;;;;;;;0.10;0.10;;;17.60;99.90;;;;;;5109309;27;20139;-83
2023/07/24 04:31:31;;;;;;;0.20;0.20;;;17.60;99.90;;;;;;5104737;27;20052;-81
2023/07/24 04:33:56;;;;;;;0.20;0.20;;;17.60;99.90;;;;;;5071285;28;20051;-82
2023/07/24 04:36:22;;;;;;;0.10;0.10;;;17.60;99.90;;;;;;5104629;28;20071;-82
2023/07/24 04:38:48;;;;;;;0.20;0.20;;;17.60;99.90;;;;;;5069694;28;20052;-82
2023/07/24 04:41:13;;;;;;;0.20;0.20;;;17.60;99.90;;;;;;5073444;28;20040;-82
2023/07/24 04:43:39;;;;;;;0.10;0.10;;;17.60;99.90;;;;;;5072110;28;20040;-82
2023/07/24 04:46:05;;;;;;;0.20;0.20;;;17.60;99.90;;;;;;5081424;28;20058;-81
2023/07/24 04:48:30;;;;;;;0.20;0.20;;;17.60;99.90;;;;;;5116921;27;20043;-83
2023/07/24 04:50:56;;;;;;;0.17;0.17;;;17.60;99.90;;;;;;5088975;28;20052;-82
2023/07/24 04:53:23;;;;;;;0.20;0.20;;;17.60;99.90;;;;;;5080977;28;20033;-82
2023/07/24 04:55:49;;;;;;;0.10;0.10;;;17.60;99.90;;;;;;5086142;28;20131;-83
2023/07/24 04:58:14;;;;;;;0.20;0.20;;;17.60;99.90;;;;;;5080649;28;20134;-83
2023/07/24 05:00:40;;;;;;;0.10;0.10;;;17.60;99.90;;;;;;5086269;28;20070;-81
2023/07/24 05:03:08;;;;;;;0.20;0.20;;;17.60;99.90;;;;;;5088825;28;20463;-82
2023/07/24 05:05:34;;;;;;;0.20;0.20;;;17.60;99.90;;;;;;5088416;28;20574;-81
2023/07/24 05:08:00;;;;;;;0.10;0.10;;;17.60;99.90;;;;;;5089905;28;20047;-83
2023/07/24 05:10:25;;;;;;;0.10;0.10;;;17.60;99.90;;;;;;5089463;28;20394;-82
2023/07/24 05:12:51;;;;;;;0.20;0.20;;;17.60;99.90;;;;;;5090172;28;20040;-82
2023/07/24 05:15:17;;;;;;;0.20;0.20;;;17.60;99.90;;;;;;5072545;28;20086;-81
2023/07/24 05:17:43;;;;;;;0.17;0.17;;;17.60;99.90;;;;;;5090146;28;20056;-82
2023/07/24 05:20:10;;;;;;;0.20;0.20;;;17.60;99.90;;;;;;5084032;28;20098;-81
2023/07/24 05:22:35;;;;;;;0.15;0.15;;;17.70;99.90;;;;;;5089110;28;20087;-82
2023/07/24 05:25:01;;;;;;;0.20;0.20;;;17.70;99.90;;;;;;5079519;28;20087;-81
2023/07/24 05:27:27;;;;;;;0.10;0.10;;;17.80;99.90;;;;;;5073010;28;20102;-82
2023/07/24 05:29:52;;;;;;;0.10;0.10;;;17.70;99.90;;;;;;5101584;27;20103;-81
2023/07/24 05:32:18;;;;;;;0.20;0.20;;;17.80;99.90;;;;;;5120503;27;20628;-81
2023/07/24 05:34:43;;;;;;;0.20;0.20;;;17.80;99.90;;;;;;5105391;27;20048;-82
2023/07/24 05:37:09;;;;;;;0.20;0.20;;;17.80;99.90;;;;;;5105258;27;20473;-82
2023/07/24 05:39:35;;;;;;;0.20;0.20;;;17.80;99.90;;;;;;5118395;27;20060;-83
2023/07/24 05:42:01;;;;;;;0.20;0.20;;;17.80;99.90;;;;;;5081136;28;20054;-81
2023/07/24 05:44:26;;;;;;;0.20;0.20;;;17.80;99.90;;;;;;5078526;28;20040;-81
2023/07/24 05:46:52;;;;;;;0.20;0.20;;;17.90;99.90;;;;;;5086492;28;20476;-82
2023/07/24 05:49:18;;;;;;;0.20;0.20;;;18.00;99.90;;;;;;5072995;28;20076;-82
2023/07/24 05:51:43;;;;;;;0.17;0.17;;;17.90;99.90;;;;;;5118740;27;20040;-82
2023/07/24 05:54:09;;;;;;;0.10;0.10;;;17.90;99.90;;;;;;5086551;28;20032;-82
2023/07/24 05:56:34;;;;;;;0.20;0.20;;;17.90;99.90;;;;;;5070837;28;20424;-82
2023/07/24 05:59:00;;;;;;;0.20;0.20;;;17.90;99.90;;;;;;5105576;28;20693;-82
2023/07/24 06:01:26;;;;;;;0.20;0.20;;;18.00;99.90;;;;;;5086500;28;20032;-82
2023/07/24 06:03:51;;;;;;;0.17;0.17;;;18.00;99.90;;;;;;5092593;28;20733;-82
2023/07/24 06:06:17;;;;;;;0.20;0.20;;;18.00;99.90;;;;;;5082288;28;20032;-81
2023/07/24 06:08:43;;;;;;;0.13;0.13;;;18.00;99.90;;;;;;5086569;28;20097;-82
2023/07/24 06:11:08;;;;;;;0.20;0.20;;;18.00;99.90;;;;;;5088615;28;20601;-82
2023/07/24 06:13:34;;;;;;;0.10;0.10;;;18.00;99.90;;;;;;5088398;28;20055;-83
2023/07/24 06:16:00;;;;;;;0.10;0.10;;;17.90;99.90;;;;;;5085341;28;20059;-83
2023/07/24 06:18:25;;;;;;;0.20;0.20;;;18.00;99.90;;;;;;5086911;28;20518;-83
2023/07/24 06:20:54;;;;;;;0.10;0.10;;;18.00;99.90;;;;;;5087966;28;20047;-83
2023/07/24 06:23:20;;;;;;;0.55;0.20;;;18.00;99.90;;;;;;5077613;28;20122;-83
2023/07/24 06:25:46;;;;;;;0.20;0.20;;;18.00;99.90;;;;;;5084676;28;20072;-84
2023/07/24 06:28:11;;;;;;;0.20;0.20;;;18.10;99.90;;;;;;5069950;28;20044;-85
2023/07/24 06:30:38;;;;;;;0.20;0.20;;;18.10;99.90;;;;;;5069598;28;20040;-82
2023/07/24 06:33:04;;;;;;;0.15;0.15;;;18.10;99.90;;;;;;5101870;28;20080;-80
2023/07/24 06:35:30;;;;;;;0.13;0.13;;;18.10;99.90;;;;;;5086962;28;20079;-82
2023/07/24 06:37:56;;;;;;;0.13;0.13;;;18.20;99.90;;;;;;5088731;28;20079;-81
2023/07/24 06:40:21;;;;;;;0.20;0.20;;;18.20;99.90;;;;;;5087881;28;20056;-81
2023/07/24 06:42:47;;;;;;;0.20;0.20;;;18.30;99.90;;;;;;5088478;28;20503;-82
2023/07/24 06:45:13;;;;;;;0.20;0.20;;;18.30;99.90;;;;;;5087665;28;20115;-83
2023/07/24 06:47:39;;;;;;;0.20;0.20;;;18.30;99.90;;;;;;5085227;28;20093;-81
2023/07/24 06:50:05;;;;;;;0.10;0.10;;;18.30;99.90;;;;;;5073916;28;20133;-81
2023/07/24 06:52:32;;;;;;;0.20;0.20;;;18.30;99.90;;;;;;5099355;28;20142;-82
2023/07/24 06:54:58;;;;;;;0.20;0.20;;;18.30;99.90;;;;;;5089824;28;20662;-82
2023/07/24 06:57:24;;;;;;;0.10;0.10;;;18.30;99.90;;;;;;5090290;28;20042;-83
2023/07/24 06:59:50;;;;;;;0.20;0.20;;;18.30;99.90;;;;;;5083885;28;20035;-80
2023/07/24 07:02:15;;;;;;;0.20;0.20;;;18.40;99.90;;;;;;5091183;28;20423;-82
2023/07/24 07:04:41;;;;;;;0.10;0.10;;;18.40;99.90;;;;;;5090308;28;20479;-82
2023/07/24 07:07:07;;;;;;;0.20;0.20;;;18.50;99.90;;;;;;5088757;28;20054;-82
2023/07/24 07:09:33;;;;;;;0.20;0.20;;;18.40;99.90;;;;;;5073255;28;20037;-82
2023/07/24 07:11:58;;;;;;;0.20;0.20;;;18.50;99.90;;;;;;5069838;28;20504;-82
2023/07/24 07:14:24;;;;;;;0.20;0.20;;;18.50;99.90;;;;;;5071176;28;20092;-82
2023/07/24 07:16:50;;;;;;;0.20;0.20;;;18.50;99.90;;;;;;5072233;28;20040;-82
2023/07/24 07:19:16;;;;;;;0.10;0.10;;;18.60;99.90;;;;;;5074853;28;20411;-82
2023/07/24 07:21:41;;;;;;;0.20;0.20;;;18.60;99.90;;;;;;5069981;28;20048;-82
2023/07/24 07:24:07;;;;;;;0.20;0.20;;;18.60;99.90;;;;;;5078243;28;20049;-82
2023/07/24 07:26:33;;;;;;;0.20;0.20;;;18.70;99.90;;;;;;5082235;28;20028;-81
2023/07/24 07:28:59;;;;;;;0.20;0.20;;;18.70;99.90;;;;;;5082624;28;20040;-83
2023/07/24 07:31:25;;;;;;;0.15;0.15;;;18.70;99.90;;;;;;5081476;28;20047;-82
2023/07/24 07:33:51;;;;;;;0.10;0.10;;;18.70;99.90;;;;;;5087492;28;20040;-82
2023/07/24 07:36:17;;;;;;;0.20;0.20;;;18.70;99.90;;;;;;5090177;28;20060;-81
2023/07/24 07:38:43;;;;;;;0.20;0.20;;;18.70;99.90;;;;;;5087882;28;20133;-82
2023/07/24 07:41:09;;;;;;;0.20;0.20;;;18.70;99.90;;;;;;5090774;28;20087;-81
2023/07/24 07:43:36;;;;;;;0.20;0.20;;;18.80;99.90;;;;;;5089109;28;20497;-82
2023/07/24 07:46:02;;;;;;;0.20;0.20;;;18.80;99.90;;;;;;5091460;28;20412;-82
2023/07/24 07:48:28;;;;;;;0.13;0.13;;;18.80;99.90;;;;;;5090642;28;20051;-81
2023/07/24 07:50:54;;;;;;;0.20;0.20;;;18.90;99.90;;;;;;5088934;28;20040;-82
2023/07/24 07:53:20;;;;;;;0.20;0.20;;;18.90;99.90;;;;;;5094321;28;20032;-81
2023/07/24 07:55:46;;;;;;;0.17;0.17;;;18.90;99.90;;;;;;5093971;28;20050;-82
2023/07/24 07:58:11;;;;;;;0.20;0.20;;;19.00;99.90;;;;;;5097665;28;20473;-82
2023/07/24 08:00:40;;;;;;;0.20;0.20;;;19.00;99.90;;;;;;5090292;28;20040;-81
2023/07/24 08:03:06;;;;;;;0.20;0.20;;;19.00;99.90;;;;;;5085842;28;20501;-81
2023/07/24 08:05:32;;;;;;;0.13;0.13;;;19.10;99.90;;;;;;5090840;28;20135;-82
2023/07/24 08:07:58;;;;;;;0.20;0.20;;;19.20;99.90;;;;;;5090591;28;20048;-82
2023/07/24 08:10:24;;;;;;;0.13;0.13;;;19.20;99.90;;;;;;5091254;28;20526;-81
2023/07/24 08:12:49;;;;;;;0.20;0.20;;;19.20;99.90;;;;;;5091020;28;20048;-82
2023/07/24 08:15:15;;;;;;;0.20;0.20;;;19.30;99.90;;;;;;5082541;28;20052;-80
2023/07/24 08:17:41;;;;;;;0.20;0.20;;;19.30;99.90;;;;;;5088087;28;20040;-83
2023/07/24 08:20:07;;;;;;;0.20;0.20;;;19.30;99.90;;;;;;5113502;27;20044;-81
2023/07/24 08:22:33;;;;;;;0.20;0.20;;;19.30;99.90;;;;;;5113797;27;20040;-81
2023/07/24 08:24:58;;;;;;;0.15;0.15;;;19.40;99.90;;;;;;5106402;27;20041;-82
2023/07/24 08:27:24;;;;;;;0.20;0.20;;;19.40;99.90;;;;;;5114147;27;20554;-82
2023/07/24 08:29:53;;;;;;;0.20;0.20;;;19.40;99.90;;;;;;5080761;28;20637;-81
2023/07/24 08:32:19;;;;;;;0.20;0.20;;;19.50;99.90;;;;;;5108797;27;20032;-82
2023/07/24 08:34:45;;;;;;;0.20;0.20;;;19.50;99.90;;;;;;5088647;28;20070;-80
2023/07/24 08:37:12;;;;;;;0.20;0.20;;;19.50;99.90;;;;;;5114347;27;20506;-79
2023/07/24 08:39:38;;;;;;;0.20;0.20;;;19.50;99.90;;;;;;5076345;28;20051;-81
2023/07/24 08:42:11;;;;;;;0.20;0.20;;;19.50;99.90;;;;;;5090284;28;20047;-81
2023/07/24 08:44:38;;;;;;;0.20;0.20;;;19.50;99.90;;;;;;5109222;27;20499;-82
2023/07/24 08:47:04;;;;;;;0.20;0.20;;;19.50;99.90;;;;;;5104016;28;20118;-81
2023/07/24 08:49:30;;;;;;;0.20;0.20;;;19.60;99.90;;;;;;5082424;28;20102;-82
2023/07/24 08:51:57;;;;;;;0.20;0.20;;;19.60;99.90;;;;;;5109208;27;20109;-82
2023/07/24 08:54:26;;;;;;;0.20;0.20;;;19.60;99.90;;;;;;5094881;28;20131;-82
2023/07/24 08:56:52;;;;;;;0.20;0.20;;;19.60;99.90;;;;;;5093084;28;20032;-82
2023/07/24 08:59:18;;;;;;;0.20;0.20;;;19.60;99.90;;;;;;5116043;27;20070;-83
2023/07/24 09:01:44;;;;;;;0.20;0.20;;;19.60;99.90;;;;;;5090624;28;20052;-82
2023/07/24 09:04:10;;;;;;;0.20;0.20;;;19.60;99.90;;;;;;5090448;28;20466;-83
2023/07/24 09:06:37;;;;;;;0.20;0.20;;;19.70;99.90;;;;;;5114111;27;20051;-82
2023/07/24 09:09:03;;;;;;;0.20;0.20;;;19.70;99.90;;;;;;5088371;28;20568;-82
2023/07/24 09:11:28;;;;;;;0.15;0.15;;;19.70;99.90;;;;;;5082240;28;20155;-83
2023/07/24 09:13:54;;;;;;;0.20;0.20;;;19.70;99.90;;;;;;5087365;28;20485;-84
2023/07/24 09:16:26;;;;;;;0.20;0.20;;;19.80;99.90;;;;;;5107683;27;20674;-83
2023/07/24 09:18:53;;;;;;;0.20;0.20;;;19.80;99.90;;;;;;5088453;28;20048;-82
2023/07/24 09:21:32;;;;;;;0.20;0.20;;;19.80;99.90;;;;;;5090491;28;20086;-82
2023/07/24 09:24:12;;;;;;;0.20;0.20;;;19.90;99.90;;;;;;5104184;28;20036;-82
2023/07/24 09:26:52;;;;;;;0.20;0.20;;;19.90;99.90;;;;;;5084231;28;20093;-82
2023/07/24 09:29:18;;;;;;;0.15;0.15;;;20.00;99.90;;;;;;5083645;28;20442;-81
2023/07/24 09:31:45;;;;;;;0.20;0.20;;;20.10;99.90;;;;;;5088305;28;20036;-82
2023/07/24 09:34:18;;;;;;;0.20;0.20;;;20.20;99.90;;;;;;5087075;28;20046;-83
2023/07/24 09:36:45;;;;;;;0.20;0.20;;;20.20;99.90;;;;;;5107286;27;20037;-82
2023/07/24 09:39:11;;;;;;;0.20;0.20;;;20.20;99.90;;;;;;5083898;28;20036;-82
2023/07/24 09:41:40;;;;;;;0.20;0.20;;;20.20;99.90;;;;;;5113550;27;20052;-82
2023/07/24 09:44:07;;;;;;;0.20;0.20;;;20.20;99.90;;;;;;5087234;28;20040;-82
2023/07/24 09:46:33;;;;;;;0.30;0.20;;;20.20;99.90;;;;;;5089036;28;20052;-80
2023/07/24 09:48:59;;;;;;;0.20;0.20;;;20.20;99.90;;;;;;5077539;28;20097;-82
2023/07/24 09:51:25;;;;;;;0.20;0.20;;;20.30;99.90;;;;;;5075457;28;20127;-82
2023/07/24 09:53:58;;;;;;;0.20;0.20;;;20.40;99.90;;;;;;5077029;28;20051;-81
2023/07/24 09:56:25;;;;;;;0.20;0.20;;;20.50;99.90;;;;;;5076402;28;20044;-83
2023/07/24 09:58:55;;;;;;;0.17;0.17;;;20.60;99.90;;;;;;5074450;28;20793;-82
2023/07/24 10:01:21;;;;;;;0.20;0.20;;;20.70;99.90;;;;;;5081837;28;20048;-83
2023/07/24 10:03:49;;;;;;;0.20;0.20;;;20.80;99.90;;;;;;5090148;28;20093;-83
2023/07/24 10:06:18;;;;;;;0.20;0.20;;;20.90;99.90;;;;;;5088622;28;20086;-83
2023/07/24 10:08:44;;;;;;;0.20;0.20;;;21.00;99.90;;;;;;5087604;28;20043;-82
2023/07/24 10:11:12;;;;;;;0.20;0.20;;;21.10;99.90;;;;;;5120285;27;20452;-83
2023/07/24 10:13:38;;;;;;;0.20;0.20;;;21.20;99.90;;;;;;5088259;28;20072;-84
2023/07/24 10:16:06;;;;;;;0.20;0.20;;;21.20;99.90;;;;;;5088180;28;20113;-83
2023/07/24 10:18:41;;;;;;;0.20;0.20;;;21.20;99.90;;;;;;5087567;28;20089;-84
2023/07/24 10:21:09;;;;;;;0.20;0.20;;;21.30;99.90;;;;;;5085434;28;20121;-83
2023/07/24 10:23:36;;;;;;;0.20;0.20;;;21.30;99.90;;;;;;5091304;28;20545;-83
2023/07/24 10:26:06;;;;;;;0.20;0.20;;;21.30;99.90;;;;;;5081926;28;20056;-83
2023/07/24 10:28:40;;;;;;;0.20;0.20;;;21.20;99.90;;;;;;5085380;28;20048;-84
2023/07/24 10:31:19;;;;;;;0.20;0.20;;;21.20;99.90;;;;;;5088137;28;20060;-83
2023/07/24 10:33:46;;;;;;;0.30;0.22;;;21.20;99.90;;;;;;5082877;28;20052;-83
2023/07/24 10:36:13;;;;;;;0.20;0.20;;;21.10;99.90;;;;;;5085313;28;20376;-83
2023/07/24 10:38:43;;;;;;;0.20;0.20;;;21.10;99.90;;;;;;5088384;28;20036;-83
2023/07/24 10:41:10;;;;;;;0.20;0.20;;;21.10;99.90;;;;;;5072403;28;20040;-82
2023/07/24 10:43:45;;;;;;;0.10;0.10;;;21.20;99.90;;;;;;5085025;28;20083;-83
2023/07/24 10:46:13;;;;;;;0.20;0.20;;;21.20;99.90;;;;;;5073174;28;20106;-83
2023/07/24 10:48:43;;;;;;;0.20;0.20;;;21.30;99.90;;;;;;5071941;28;20116;-83
2023/07/24 10:51:09;;;;;;;0.20;0.20;;;21.40;99.90;;;;;;5090955;28;20083;-83
2023/07/24 10:53:38;;;;;;;0.20;0.20;;;21.40;99.90;;;;;;5090493;28;20048;-84
2023/07/24 10:56:07;;;;;;;0.20;0.20;;;21.40;99.90;;;;;;5126896;27;20043;-82
2023/07/24 10:58:35;;;;;;;0.20;0.20;;;21.40;99.90;;;;;;5086635;28;20040;-83
2023/07/24 11:01:04;;;;;;;0.20;0.20;;;21.40;99.90;;;;;;5089298;28;20134;-83
2023/07/24 11:03:31;;;;;;;0.22;0.20;;;21.40;99.90;;;;;;5124874;27;20046;-83
2023/07/24 11:05:58;;;;;;;0.20;0.20;;;21.40;99.90;;;;;;5087813;28;20057;-83
2023/07/24 11:08:24;;;;;;;0.20;0.20;;;21.30;99.90;;;;;;5086784;28;20471;-82
2023/07/24 11:10:52;;;;;;;0.20;0.20;;;21.20;99.90;;;;;;5090797;28;20101;-83
2023/07/24 11:13:23;;;;;;;0.20;0.20;;;21.20;99.90;;;;;;5073785;28;20045;-83
2023/07/24 11:15:49;;;;;;;0.20;0.20;;;21.10;99.90;;;;;;5090338;28;20048;-82
2023/07/24 11:18:16;;;;;;;0.20;0.20;;;21.10;99.90;;;;;;5092372;28;20044;-83
2023/07/24 11:20:53;;;;;;;0.20;0.20;;;21.20;99.90;;;;;;5087051;28;20463;-83
2023/07/24 11:23:19;;;;;;;0.20;0.20;;;21.20;99.90;;;;;;5075483;28;20249;-82
2023/07/24 11:25:46;;;;;;;0.20;0.20;;;21.30;99.90;;;;;;5107549;27;20048;-82
2023/07/24 11:28:13;;;;;;;0.28;0.28;;;21.30;99.90;;;;;;5078336;28;20045;-83
2023/07/24 11:30:39;;;;;;;0.20;0.20;;;21.20;99.90;;;;;;5080841;28;20051;-84
2023/07/24 11:33:07;;;;;;;0.20;0.20;;;21.10;99.90;;;;;;5080109;28;20094;-83
2023/07/24 11:35:35;;;;;;;0.20;0.20;;;21.10;99.90;;;;;;5125591;27;20128;-83
2023/07/24 11:38:03;;;;;;;0.20;0.20;;;21.00;99.90;;;;;;5126273;27;20051;-84
2023/07/24 11:40:36;;;;;;;0.20;0.20;;;21.00;99.90;;;;;;5085250;28;20052;-84
2023/07/24 11:43:03;;;;;;;0.20;0.20;;;21.00;99.90;;;;;;5089370;28;20071;-83
2023/07/24 11:45:42;;;;;;;0.20;0.20;;;20.90;99.90;;;;;;5091034;28;20083;-85
2023/07/24 11:48:12;;;;;;;0.20;0.20;;;20.90;99.90;;;;;;5071620;28;20051;-85
2023/07/24 11:50:51;;;;;;;0.20;0.20;;;20.90;99.90;;;;;;5082966;28;20445;-85
2023/07/24 11:53:21;;;;;;;0.20;0.20;;;21.00;99.90;;;;;;5089130;28;20058;-85
2023/07/24 11:55:48;;;;;;;0.20;0.20;;;21.10;99.90;;;;;;5089493;28;20492;-84
2023/07/24 11:58:16;;;;;;;0.20;0.20;;;21.20;99.90;;;;;;5111490;27;20053;-85
2023/07/24 12:00:42;;;;;;;0.20;0.20;;;21.40;99.90;;;;;;5087267;28;20402;-82
2023/07/24 12:03:08;;;;;;;0.20;0.20;;;21.50;99.90;;;;;;5086110;28;20143;-84
2023/07/24 12:05:40;;;;;;;0.20;0.20;;;21.60;99.90;;;;;;5085504;28;20037;-85
2023/07/24 12:08:07;;;;;;;0.20;0.20;;;21.70;99.90;;;;;;5094181;28;20352;-85
2023/07/24 12:10:38;;;;;;;0.20;0.20;;;21.80;99.90;;;;;;5091488;28;20043;-84
2023/07/24 12:13:05;;;;;;;0.20;0.20;;;22.00;99.90;;;;;;5090374;28;20048;-84
2023/07/24 12:15:31;;;;;;;0.10;0.10;;;22.00;99.90;;;;;;5089975;28;20055;-83
2023/07/24 12:17:57;;;;;;;0.20;0.20;;;22.00;99.90;;;;;;5075038;28;20048;-84
2023/07/24 12:20:23;;;;;;;0.20;0.20;;;22.10;99.90;;;;;;5072976;28;20048;-84
2023/07/24 12:22:49;;;;;;;0.20;0.20;;;22.20;99.90;;;;;;5071136;28;20070;-83
2023/07/24 12:25:15;;;;;;;0.20;0.20;;;22.10;99.90;;;;;;5104503;28;20567;-82
2023/07/24 12:27:42;;;;;;;0.20;0.20;;;22.10;99.90;;;;;;5082527;28;20447;-84
2023/07/24 12:30:08;;;;;;;0.20;0.20;;;21.90;99.90;;;;;;5087500;28;20051;-86
2023/07/24 12:32:34;;;;;;;0.20;0.20;;;21.80;99.90;;;;;;5125969;27;20051;-92
2023/07/24 12:35:00;;;;;;;0.20;0.20;;;21.50;99.90;;;;;;5091931;28;20403;-89
2023/07/24 12:37:26;;;;;;;0.10;0.10;;;21.10;99.90;;;;;;5092843;28;20468;-87
2023/07/24 12:39:52;;;;;;;0.17;0.17;;;21.00;99.90;;;;;;5092582;28;20512;-87
2023/07/24 12:42:17;;;;;;;0.20;0.20;;;20.90;99.90;;;;;;5090116;28;20538;-87
2023/07/24 12:44:44;;;;;;;0.20;0.20;;;20.40;99.90;;;;;;5071085;28;20076;-88
2023/07/24 12:47:10;;;;;;;0.20;0.20;;;20.10;99.90;;;;;;5081910;28;20081;-88